Terminal Aerodrome Forecast
Issued by NWS

Current Version | Previous Version | Graphics & Text | Print | Product List | Glossary On
Versions: 1 2 3 4 5 6 7 8 9 10 11 12 13 14
791
FTUS41 KPBZ 242326
TAFHLG
TAF
KHLG 242326Z 2500/2524 03003KT P6SM SKC
     FM250800 02002KT 2SM BR SKC
     FM251200 02002KT P6SM SKC=

USA.gov is the U.S. government's official web portal to all federal, state and local government web resources and services.